sensor_id;sensor_type;location;lat;lon;timestamp;temperature;humidity
4103;DHT22;2065;49.790;9.620;2023-02-01T00:01:05;9.50;65.30
4103;DHT22;2065;49.790;9.620;2023-02-01T00:03:32;9.70;64.60
4103;DHT22;2065;49.790;9.620;2023-02-01T00:06:00;9.40;64.80
4103;DHT22;2065;49.790;9.620;2023-02-01T00:08:27;9.30;65.70
4103;DHT22;2065;49.790;9.620;2023-02-01T00:10:58;9.10;65.80
4103;DHT22;2065;49.790;9.620;2023-02-01T00:13:29;9.00;66.00
4103;DHT22;2065;49.790;9.620;2023-02-01T00:16:03;8.90;66.10
4103;DHT22;2065;49.790;9.620;2023-02-01T00:18:30;9.10;66.30
4103;DHT22;2065;49.790;9.620;2023-02-01T00:20:57;9.10;65.40
4103;DHT22;2065;49.790;9.620;2023-02-01T00:23:25;9.10;65.40
4103;DHT22;2065;49.790;9.620;2023-02-01T00:25:52;9.20;65.30
4103;DHT22;2065;49.790;9.620;2023-02-01T00:28:19;9.30;65.10
4103;DHT22;2065;49.790;9.620;2023-02-01T00:30:55;9.40;65.00
4103;DHT22;2065;49.790;9.620;2023-02-01T00:33:23;9.30;64.50
4103;DHT22;2065;49.790;9.620;2023-02-01T00:35:51;9.20;64.50
4103;DHT22;2065;49.790;9.620;2023-02-01T00:38:18;9.10;64.60
4103;DHT22;2065;49.790;9.620;2023-02-01T00:40:45;9.30;64.60
4103;DHT22;2065;49.790;9.620;2023-02-01T00:43:12;9.40;64.00
4103;DHT22;2065;49.790;9.620;2023-02-01T00:45:39;9.30;64.10
4103;DHT22;2065;49.790;9.620;2023-02-01T00:48:08;9.30;63.80
4103;DHT22;2065;49.790;9.620;2023-02-01T00:50:35;9.20;64.10
4103;DHT22;2065;49.790;9.620;2023-02-01T00:53:02;9.50;63.80
4103;DHT22;2065;49.790;9.620;2023-02-01T00:55:29;9.50;63.60
4103;DHT22;2065;49.790;9.620;2023-02-01T00:57:57;9.50;63.50
4103;DHT22;2065;49.790;9.620;2023-02-01T01:00:24;9.70;62.90
4103;DHT22;2065;49.790;9.620;2023-02-01T01:02:51;9.70;63.10
4103;DHT22;2065;49.790;9.620;2023-02-01T01:05:20;9.70;62.90
4103;DHT22;2065;49.790;9.620;2023-02-01T01:07:47;9.60;63.10
4103;DHT22;2065;49.790;9.620;2023-02-01T01:10:14;9.70;63.00
4103;DHT22;2065;49.790;9.620;2023-02-01T01:12:41;9.90;62.70
4103;DHT22;2065;49.790;9.620;2023-02-01T01:15:09;9.90;61.70
4103;DHT22;2065;49.790;9.620;2023-02-01T01:17:36;9.70;62.50
4103;DHT22;2065;49.790;9.620;2023-02-01T01:20:04;9.80;62.90
4103;DHT22;2065;49.790;9.620;2023-02-01T01:22:32;9.80;62.30
4103;DHT22;2065;49.790;9.620;2023-02-01T01:25:00;9.80;61.70
4103;DHT22;2065;49.790;9.620;2023-02-01T01:27:27;9.70;61.90
4103;DHT22;2065;49.790;9.620;2023-02-01T01:29:54;9.60;62.20
4103;DHT22;2065;49.790;9.620;2023-02-01T01:32:21;9.60;61.80
4103;DHT22;2065;49.790;9.620;2023-02-01T01:34:48;9.40;62.30
4103;DHT22;2065;49.790;9.620;2023-02-01T01:37:15;9.40;62.80
4103;DHT22;2065;49.790;9.620;2023-02-01T01:39:44;9.30;62.70
4103;DHT22;2065;49.790;9.620;2023-02-01T01:42:11;9.50;62.80
4103;DHT22;2065;49.790;9.620;2023-02-01T01:45:00;9.40;62.00
4103;DHT22;2065;49.790;9.620;2023-02-01T01:47:34;9.40;62.20
4103;DHT22;2065;49.790;9.620;2023-02-01T01:50:02;9.40;62.40
4103;DHT22;2065;49.790;9.620;2023-02-01T01:52:30;9.40;61.60
4103;DHT22;2065;49.790;9.620;2023-02-01T01:54:59;9.20;62.20
4103;DHT22;2065;49.790;9.620;2023-02-01T01:57:29;9.50;63.20
4103;DHT22;2065;49.790;9.620;2023-02-01T02:00:01;9.70;61.80
4103;DHT22;2065;49.790;9.620;2023-02-01T02:02:41;9.70;61.20
4103;DHT22;2065;49.790;9.620;2023-02-01T02:05:09;9.60;61.30
4103;DHT22;2065;49.790;9.620;2023-02-01T02:07:40;9.40;62.00
4103;DHT22;2065;49.790;9.620;2023-02-01T02:10:12;9.40;62.30
4103;DHT22;2065;49.790;9.620;2023-02-01T02:12:41;9.40;62.70
4103;DHT22;2065;49.790;9.620;2023-02-01T02:15:10;9.50;62.60
4103;DHT22;2065;49.790;9.620;2023-02-01T02:17:54;9.50;62.20
4103;DHT22;2065;49.790;9.620;2023-02-01T02:20:46;9.40;62.60
4103;DHT22;2065;49.790;9.620;2023-02-01T02:23:33;9.20;63.30
4103;DHT22;2065;49.790;9.620;2023-02-01T02:32:29;9.10;63.70
4103;DHT22;2065;49.790;9.620;2023-02-01T02:35:09;8.80;64.80
4103;DHT22;2065;49.790;9.620;2023-02-01T02:37:43;8.80;65.30
4103;DHT22;2065;49.790;9.620;2023-02-01T02:40:17;9.00;65.50
4103;DHT22;2065;49.790;9.620;2023-02-01T02:42:54;9.00;65.50
4103;DHT22;2065;49.790;9.620;2023-02-01T02:45:47;9.00;65.90
4103;DHT22;2065;49.790;9.620;2023-02-01T02:48:38;8.80;67.00
4103;DHT22;2065;49.790;9.620;2023-02-01T02:51:09;9.00;67.10
4103;DHT22;2065;49.790;9.620;2023-02-01T02:53:59;9.20;66.60
4103;DHT22;2065;49.790;9.620;2023-02-01T02:56:46;9.20;66.40
4103;DHT22;2065;49.790;9.620;2023-02-01T02:59:33;9.20;66.50
4103;DHT22;2065;49.790;9.620;2023-02-01T03:02:18;9.20;66.40
4103;DHT22;2065;49.790;9.620;2023-02-01T03:05:04;9.40;66.30
4103;DHT22;2065;49.790;9.620;2023-02-01T03:08:03;9.50;65.90
4103;DHT22;2065;49.790;9.620;2023-02-01T03:10:40;9.50;66.10
4103;DHT22;2065;49.790;9.620;2023-02-01T03:13:13;9.20;66.70
4103;DHT22;2065;49.790;9.620;2023-02-01T03:15:43;9.10;67.70
4103;DHT22;2065;49.790;9.620;2023-02-01T03:18:14;9.20;67.60
4103;DHT22;2065;49.790;9.620;2023-02-01T03:20:46;9.20;67.20
4103;DHT22;2065;49.790;9.620;2023-02-01T03:23:18;8.90;67.90
4103;DHT22;2065;49.790;9.620;2023-02-01T03:25:47;9.00;68.40
4103;DHT22;2065;49.790;9.620;2023-02-01T03:28:15;8.90;68.30
4103;DHT22;2065;49.790;9.620;2023-02-01T03:30:45;8.60;69.30
4103;DHT22;2065;49.790;9.620;2023-02-01T03:33:15;8.40;70.70
4103;DHT22;2065;49.790;9.620;2023-02-01T03:35:55;8.30;70.20
4103;DHT22;2065;49.790;9.620;2023-02-01T03:38:29;8.30;70.30
4103;DHT22;2065;49.790;9.620;2023-02-01T03:41:02;8.30;70.40
4103;DHT22;2065;49.790;9.620;2023-02-01T03:43:36;8.30;70.40
4103;DHT22;2065;49.790;9.620;2023-02-01T03:46:08;8.20;69.30
4103;DHT22;2065;49.790;9.620;2023-02-01T03:48:37;8.30;69.90
4103;DHT22;2065;49.790;9.620;2023-02-01T03:51:05;8.40;69.50
4103;DHT22;2065;49.790;9.620;2023-02-01T03:53:35;8.60;68.80
4103;DHT22;2065;49.790;9.620;2023-02-01T03:56:06;8.40;67.90
4103;DHT22;2065;49.790;9.620;2023-02-01T03:58:33;8.00;67.10
4103;DHT22;2065;49.790;9.620;2023-02-01T04:01:01;7.90;68.90
4103;DHT22;2065;49.790;9.620;2023-02-01T04:03:31;8.00;69.10
4103;DHT22;2065;49.790;9.620;2023-02-01T04:05:58;8.00;68.60
4103;DHT22;2065;49.790;9.620;2023-02-01T04:08:27;8.00;68.30
4103;DHT22;2065;49.790;9.620;2023-02-01T04:10:55;7.90;67.80
4103;DHT22;2065;49.790;9.620;2023-02-01T04:13:22;7.90;68.20
4103;DHT22;2065;49.790;9.620;2023-02-01T04:15:49;7.90;69.10
4103;DHT22;2065;49.790;9.620;2023-02-01T04:18:16;7.80;68.30
4103;DHT22;2065;49.790;9.620;2023-02-01T04:20:43;7.80;68.80
4103;DHT22;2065;49.790;9.620;2023-02-01T04:23:11;7.80;68.70
4103;DHT22;2065;49.790;9.620;2023-02-01T04:25:38;8.10;68.40
4103;DHT22;2065;49.790;9.620;2023-02-01T04:28:06;8.30;68.30
4103;DHT22;2065;49.790;9.620;2023-02-01T04:30:33;8.50;66.90
4103;DHT22;2065;49.790;9.620;2023-02-01T04:33:00;8.50;66.00
4103;DHT22;2065;49.790;9.620;2023-02-01T04:35:29;8.50;66.10
4103;DHT22;2065;49.790;9.620;2023-02-01T04:37:56;8.50;65.60
4103;DHT22;2065;49.790;9.620;2023-02-01T04:40:23;8.50;65.40
4103;DHT22;2065;49.790;9.620;2023-02-01T04:42:50;8.50;65.60
4103;DHT22;2065;49.790;9.620;2023-02-01T04:45:18;8.50;66.00
4103;DHT22;2065;49.790;9.620;2023-02-01T04:47:45;8.50;65.40
4103;DHT22;2065;49.790;9.620;2023-02-01T04:50:13;8.40;65.70
4103;DHT22;2065;49.790;9.620;2023-02-01T04:52:40;8.20;66.40
4103;DHT22;2065;49.790;9.620;2023-02-01T04:55:08;8.10;67.20
4103;DHT22;2065;49.790;9.620;2023-02-01T04:57:35;7.90;67.30
4103;DHT22;2065;49.790;9.620;2023-02-01T05:00:05;8.10;67.30
4103;DHT22;2065;49.790;9.620;2023-02-01T05:02:34;7.90;67.20
4103;DHT22;2065;49.790;9.620;2023-02-01T05:05:01;8.00;67.50
4103;DHT22;2065;49.790;9.620;2023-02-01T05:07:28;8.30;66.40
4103;DHT22;2065;49.790;9.620;2023-02-01T05:09:55;8.10;65.70
4103;DHT22;2065;49.790;9.620;2023-02-01T05:12:22;8.00;66.20
4103;DHT22;2065;49.790;9.620;2023-02-01T05:15:08;7.70;67.00
4103;DHT22;2065;49.790;9.620;2023-02-01T05:17:36;7.70;68.00
4103;DHT22;2065;49.790;9.620;2023-02-01T05:20:06;7.80;68.10
4103;DHT22;2065;49.790;9.620;2023-02-01T05:22:33;8.00;67.30
4103;DHT22;2065;49.790;9.620;2023-02-01T05:25:00;8.00;67.30
4103;DHT22;2065;49.790;9.620;2023-02-01T05:27:29;8.10;67.10
4103;DHT22;2065;49.790;9.620;2023-02-01T05:29:56;8.10;67.10
4103;DHT22;2065;49.790;9.620;2023-02-01T05:32:23;8.00;67.30
4103;DHT22;2065;49.790;9.620;2023-02-01T05:34:51;8.20;67.20
4103;DHT22;2065;49.790;9.620;2023-02-01T05:37:18;8.30;67.80
4103;DHT22;2065;49.790;9.620;2023-02-01T05:39:45;8.60;66.60
4103;DHT22;2065;49.790;9.620;2023-02-01T05:42:12;8.70;65.60
4103;DHT22;2065;49.790;9.620;2023-02-01T05:44:39;8.90;65.40
4103;DHT22;2065;49.790;9.620;2023-02-01T05:47:06;9.10;65.20
4103;DHT22;2065;49.790;9.620;2023-02-01T05:49:33;9.00;64.40
4103;DHT22;2065;49.790;9.620;2023-02-01T05:52:01;9.10;64.50
4103;DHT22;2065;49.790;9.620;2023-02-01T05:54:28;9.10;64.30
4103;DHT22;2065;49.790;9.620;2023-02-01T05:56:55;9.00;64.60
4103;DHT22;2065;49.790;9.620;2023-02-01T05:59:22;8.90;65.20
4103;DHT22;2065;49.790;9.620;2023-02-01T06:01:49;8.60;66.30
4103;DHT22;2065;49.790;9.620;2023-02-01T06:04:16;8.40;66.80
4103;DHT22;2065;49.790;9.620;2023-02-01T06:06:43;8.50;66.60
4103;DHT22;2065;49.790;9.620;2023-02-01T06:09:11;8.40;66.50
4103;DHT22;2065;49.790;9.620;2023-02-01T06:11:39;8.60;66.30
4103;DHT22;2065;49.790;9.620;2023-02-01T06:14:07;8.40;67.00
4103;DHT22;2065;49.790;9.620;2023-02-01T06:16:34;8.60;66.40
4103;DHT22;2065;49.790;9.620;2023-02-01T06:19:01;8.50;66.60
4103;DHT22;2065;49.790;9.620;2023-02-01T06:21:27;8.30;67.00
4103;DHT22;2065;49.790;9.620;2023-02-01T06:23:54;8.10;67.90
4103;DHT22;2065;49.790;9.620;2023-02-01T06:26:24;8.20;68.10
4103;DHT22;2065;49.790;9.620;2023-02-01T06:28:52;8.40;67.10
4103;DHT22;2065;49.790;9.620;2023-02-01T06:31:19;8.40;67.00
4103;DHT22;2065;49.790;9.620;2023-02-01T06:33:45;8.30;66.90
4103;DHT22;2065;49.790;9.620;2023-02-01T06:36:14;8.20;67.10
4103;DHT22;2065;49.790;9.620;2023-02-01T06:38:41;8.20;67.70
4103;DHT22;2065;49.790;9.620;2023-02-01T06:41:08;8.30;67.40
4103;DHT22;2065;49.790;9.620;2023-02-01T06:43:37;8.40;67.20
4103;DHT22;2065;49.790;9.620;2023-02-01T06:46:06;8.30;66.70
4103;DHT22;2065;49.790;9.620;2023-02-01T06:48:34;8.50;66.20
4103;DHT22;2065;49.790;9.620;2023-02-01T06:51:01;8.40;66.60
4103;DHT22;2065;49.790;9.620;2023-02-01T06:53:28;8.30;66.70
4103;DHT22;2065;49.790;9.620;2023-02-01T06:55:57;8.20;66.80
4103;DHT22;2065;49.790;9.620;2023-02-01T06:58:27;8.30;66.70
4103;DHT22;2065;49.790;9.620;2023-02-01T07:00:56;8.40;66.60
4103;DHT22;2065;49.790;9.620;2023-02-01T07:03:24;8.30;66.60
4103;DHT22;2065;49.790;9.620;2023-02-01T07:05:55;8.50;65.90
4103;DHT22;2065;49.790;9.620;2023-02-01T07:08:22;8.30;66.90
4103;DHT22;2065;49.790;9.620;2023-02-01T07:10:49;8.30;66.80
4103;DHT22;2065;49.790;9.620;2023-02-01T07:13:16;8.50;66.20
4103;DHT22;2065;49.790;9.620;2023-02-01T07:15:43;8.50;65.90
4103;DHT22;2065;49.790;9.620;2023-02-01T07:18:14;8.50;66.20
4103;DHT22;2065;49.790;9.620;2023-02-01T07:20:41;8.50;65.80
4103;DHT22;2065;49.790;9.620;2023-02-01T07:23:09;8.40;66.20
4103;DHT22;2065;49.790;9.620;2023-02-01T07:25:37;8.20;67.20
4103;DHT22;2065;49.790;9.620;2023-02-01T07:28:03;8.20;67.40
4103;DHT22;2065;49.790;9.620;2023-02-01T07:30:30;8.30;66.80
4103;DHT22;2065;49.790;9.620;2023-02-01T07:32:57;8.30;66.30
4103;DHT22;2065;49.790;9.620;2023-02-01T07:35:28;8.20;66.70
4103;DHT22;2065;49.790;9.620;2023-02-01T07:37:57;8.50;66.40
4103;DHT22;2065;49.790;9.620;2023-02-01T07:40:24;8.60;66.40
4103;DHT22;2065;49.790;9.620;2023-02-01T07:42:54;8.50;64.90
4103;DHT22;2065;49.790;9.620;2023-02-01T07:45:21;8.40;66.00
4103;DHT22;2065;49.790;9.620;2023-02-01T07:47:48;8.30;65.80
4103;DHT22;2065;49.790;9.620;2023-02-01T07:50:15;8.40;65.60
4103;DHT22;2065;49.790;9.620;2023-02-01T07:52:44;8.50;65.10
4103;DHT22;2065;49.790;9.620;2023-02-01T07:55:11;8.40;65.00
4103;DHT22;2065;49.790;9.620;2023-02-01T07:57:38;8.40;64.90
4103;DHT22;2065;49.790;9.620;2023-02-01T08:00:05;8.40;64.60
4103;DHT22;2065;49.790;9.620;2023-02-01T08:02:50;8.40;65.30
4103;DHT22;2065;49.790;9.620;2023-02-01T08:05:17;8.50;65.50
4103;DHT22;2065;49.790;9.620;2023-02-01T08:07:48;8.60;64.70
4103;DHT22;2065;49.790;9.620;2023-02-01T08:10:16;8.60;63.80
4103;DHT22;2065;49.790;9.620;2023-02-01T08:12:43;8.70;64.10
4103;DHT22;2065;49.790;9.620;2023-02-01T08:15:13;8.60;63.60
4103;DHT22;2065;49.790;9.620;2023-02-01T08:17:46;8.50;63.30
4103;DHT22;2065;49.790;9.620;2023-02-01T08:20:13;8.30;63.70
4103;DHT22;2065;49.790;9.620;2023-02-01T08:22:40;8.20;64.50
4103;DHT22;2065;49.790;9.620;2023-02-01T08:25:10;8.40;64.10
4103;DHT22;2065;49.790;9.620;2023-02-01T08:27:37;8.50;62.80
4103;DHT22;2065;49.790;9.620;2023-02-01T08:30:05;8.60;62.80
4103;DHT22;2065;49.790;9.620;2023-02-01T08:32:33;8.60;61.90
4103;DHT22;2065;49.790;9.620;2023-02-01T08:35:01;8.60;63.00
4103;DHT22;2065;49.790;9.620;2023-02-01T08:37:28;8.60;63.10
4103;DHT22;2065;49.790;9.620;2023-02-01T08:39:55;8.50;62.50
4103;DHT22;2065;49.790;9.620;2023-02-01T08:42:24;8.60;63.10
4103;DHT22;2065;49.790;9.620;2023-02-01T08:45:09;8.80;62.00
4103;DHT22;2065;49.790;9.620;2023-02-01T08:47:36;8.60;62.60
4103;DHT22;2065;49.790;9.620;2023-02-01T08:50:03;8.70;63.00
4103;DHT22;2065;49.790;9.620;2023-02-01T08:52:30;8.40;62.10
4103;DHT22;2065;49.790;9.620;2023-02-01T08:54:57;8.40;63.40
4103;DHT22;2065;49.790;9.620;2023-02-01T08:57:26;8.50;63.40
4103;DHT22;2065;49.790;9.620;2023-02-01T08:59:53;8.50;63.00
4103;DHT22;2065;49.790;9.620;2023-02-01T09:02:20;8.50;62.90
4103;DHT22;2065;49.790;9.620;2023-02-01T09:04:47;8.50;63.30
4103;DHT22;2065;49.790;9.620;2023-02-01T09:07:14;8.60;62.50
4103;DHT22;2065;49.790;9.620;2023-02-01T09:09:42;8.70;62.70
4103;DHT22;2065;49.790;9.620;2023-02-01T09:12:09;8.70;63.20
4103;DHT22;2065;49.790;9.620;2023-02-01T09:14:37;8.70;62.50
4103;DHT22;2065;49.790;9.620;2023-02-01T09:17:04;8.70;63.10
4103;DHT22;2065;49.790;9.620;2023-02-01T09:19:32;8.60;62.20
4103;DHT22;2065;49.790;9.620;2023-02-01T09:21:59;8.70;62.30
4103;DHT22;2065;49.790;9.620;2023-02-01T09:24:26;8.70;61.90
4103;DHT22;2065;49.790;9.620;2023-02-01T09:26:53;8.80;62.10
4103;DHT22;2065;49.790;9.620;2023-02-01T09:29:20;8.90;61.60
4103;DHT22;2065;49.790;9.620;2023-02-01T09:31:48;8.90;61.10
4103;DHT22;2065;49.790;9.620;2023-02-01T09:34:15;9.00;61.40
4103;DHT22;2065;49.790;9.620;2023-02-01T09:36:42;9.20;61.30
4103;DHT22;2065;49.790;9.620;2023-02-01T09:39:09;9.10;59.80
4103;DHT22;2065;49.790;9.620;2023-02-01T09:41:48;9.30;60.70
4103;DHT22;2065;49.790;9.620;2023-02-01T09:44:36;9.30;60.40
4103;DHT22;2065;49.790;9.620;2023-02-01T09:47:12;9.30;60.20
4103;DHT22;2065;49.790;9.620;2023-02-01T09:49:48;9.20;60.20
4103;DHT22;2065;49.790;9.620;2023-02-01T09:52:24;9.30;60.70
4103;DHT22;2065;49.790;9.620;2023-02-01T09:54:55;9.50;59.70
4103;DHT22;2065;49.790;9.620;2023-02-01T09:57:38;9.60;59.90
4103;DHT22;2065;49.790;9.620;2023-02-01T10:00:16;9.70;58.90
4103;DHT22;2065;49.790;9.620;2023-02-01T10:02:45;9.40;58.90
4103;DHT22;2065;49.790;9.620;2023-02-01T10:05:14;9.40;59.40
4103;DHT22;2065;49.790;9.620;2023-02-01T10:07:51;9.20;58.70
4103;DHT22;2065;49.790;9.620;2023-02-01T10:10:28;9.00;59.30
4103;DHT22;2065;49.790;9.620;2023-02-01T10:13:06;9.10;60.30
4103;DHT22;2065;49.790;9.620;2023-02-01T10:15:54;9.10;58.80
4103;DHT22;2065;49.790;9.620;2023-02-01T10:18:36;9.10;58.80
4103;DHT22;2065;49.790;9.620;2023-02-01T10:21:14;9.10;58.10
4103;DHT22;2065;49.790;9.620;2023-02-01T10:24:02;9.00;58.70
4103;DHT22;2065;49.790;9.620;2023-02-01T10:26:33;9.40;59.50
4103;DHT22;2065;49.790;9.620;2023-02-01T10:29:04;9.50;58.40
4103;DHT22;2065;49.790;9.620;2023-02-01T10:31:34;9.50;58.30
4103;DHT22;2065;49.790;9.620;2023-02-01T10:34:14;9.50;58.10
4103;DHT22;2065;49.790;9.620;2023-02-01T10:36:50;9.50;58.60
4103;DHT22;2065;49.790;9.620;2023-02-01T10:39:18;9.50;57.40
4103;DHT22;2065;49.790;9.620;2023-02-01T10:41:46;9.50;57.40
4103;DHT22;2065;49.790;9.620;2023-02-01T10:44:15;9.70;57.50
4103;DHT22;2065;49.790;9.620;2023-02-01T10:46:43;9.60;56.70
4103;DHT22;2065;49.790;9.620;2023-02-01T10:49:16;9.50;55.90
4103;DHT22;2065;49.790;9.620;2023-02-01T10:51:47;9.50;56.90
4103;DHT22;2065;49.790;9.620;2023-02-01T10:54:19;9.50;56.10
4103;DHT22;2065;49.790;9.620;2023-02-01T10:56:47;9.50;56.30
4103;DHT22;2065;49.790;9.620;2023-02-01T10:59:16;9.40;56.00
4103;DHT22;2065;49.790;9.620;2023-02-01T11:01:46;9.60;56.70
4103;DHT22;2065;49.790;9.620;2023-02-01T11:04:16;9.50;55.20
4103;DHT22;2065;49.790;9.620;2023-02-01T11:06:44;9.70;56.00
4103;DHT22;2065;49.790;9.620;2023-02-01T11:09:18;9.90;55.30
4103;DHT22;2065;49.790;9.620;2023-02-01T11:11:56;9.80;54.30
4103;DHT22;2065;49.790;9.620;2023-02-01T11:14:32;9.80;54.30
4103;DHT22;2065;49.790;9.620;2023-02-01T11:17:02;9.90;54.30
4103;DHT22;2065;49.790;9.620;2023-02-01T11:19:45;10.10;52.50
4103;DHT22;2065;49.790;9.620;2023-02-01T11:22:13;10.20;51.90
4103;DHT22;2065;49.790;9.620;2023-02-01T11:24:44;10.20;51.80
4103;DHT22;2065;49.790;9.620;2023-02-01T11:27:15;10.00;52.20
4103;DHT22;2065;49.790;9.620;2023-02-01T11:29:47;9.70;52.80
4103;DHT22;2065;49.790;9.620;2023-02-01T11:32:17;9.70;53.40
4103;DHT22;2065;49.790;9.620;2023-02-01T11:34:48;9.50;51.80
4103;DHT22;2065;49.790;9.620;2023-02-01T11:37:19;9.70;52.60
4103;DHT22;2065;49.790;9.620;2023-02-01T11:39:54;9.70;52.00
4103;DHT22;2065;49.790;9.620;2023-02-01T11:42:22;9.70;51.10
4103;DHT22;2065;49.790;9.620;2023-02-01T11:44:49;9.90;51.60
4103;DHT22;2065;49.790;9.620;2023-02-01T11:47:25;9.90;52.30
4103;DHT22;2065;49.790;9.620;2023-02-01T11:49:55;9.70;51.80
4103;DHT22;2065;49.790;9.620;2023-02-01T11:52:36;9.40;53.10
4103;DHT22;2065;49.790;9.620;2023-02-01T11:55:34;9.70;53.40
4103;DHT22;2065;49.790;9.620;2023-02-01T11:58:12;9.90;52.90
4103;DHT22;2065;49.790;9.620;2023-02-01T12:00:55;10.00;51.40
4103;DHT22;2065;49.790;9.620;2023-02-01T12:03:52;9.80;51.60
4103;DHT22;2065;49.790;9.620;2023-02-01T12:06:31;9.60;52.60
4103;DHT22;2065;49.790;9.620;2023-02-01T12:09:09;9.60;53.20
4103;DHT22;2065;49.790;9.620;2023-02-01T12:11:52;9.50;52.80
4103;DHT22;2065;49.790;9.620;2023-02-01T12:14:35;9.40;52.40
4103;DHT22;2065;49.790;9.620;2023-02-01T12:17:29;9.50;52.70
4103;DHT22;2065;49.790;9.620;2023-02-01T12:20:12;9.70;52.60
4103;DHT22;2065;49.790;9.620;2023-02-01T12:22:57;10.00;51.70
4103;DHT22;2065;49.790;9.620;2023-02-01T12:25:38;9.90;53.00
4103;DHT22;2065;49.790;9.620;2023-02-01T12:28:36;10.10;52.00
4103;DHT22;2065;49.790;9.620;2023-02-01T12:31:19;10.10;50.50
4103;DHT22;2065;49.790;9.620;2023-02-01T12:33:59;10.00;52.50
4103;DHT22;2065;49.790;9.620;2023-02-01T12:36:38;9.80;52.50
4103;DHT22;2065;49.790;9.620;2023-02-01T12:39:17;9.80;53.60
4103;DHT22;2065;49.790;9.620;2023-02-01T12:41:55;9.80;53.10
4103;DHT22;2065;49.790;9.620;2023-02-01T12:44:40;9.80;52.50
4103;DHT22;2065;49.790;9.620;2023-02-01T12:47:18;9.70;53.00
4103;DHT22;2065;49.790;9.620;2023-02-01T12:49:52;9.90;52.70
4103;DHT22;2065;49.790;9.620;2023-02-01T12:52:26;9.90;52.30
4103;DHT22;2065;49.790;9.620;2023-02-01T12:55:00;9.70;52.70
4103;DHT22;2065;49.790;9.620;2023-02-01T12:57:31;9.80;53.60
4103;DHT22;2065;49.790;9.620;2023-02-01T13:00:06;9.80;52.60
4103;DHT22;2065;49.790;9.620;2023-02-01T13:02:39;9.80;52.60
4103;DHT22;2065;49.790;9.620;2023-02-01T13:05:14;9.80;53.60
4103;DHT22;2065;49.790;9.620;2023-02-01T13:07:48;9.70;52.70
4103;DHT22;2065;49.790;9.620;2023-02-01T13:10:20;9.70;53.70
4103;DHT22;2065;49.790;9.620;2023-02-01T13:12:53;9.70;53.30
4103;DHT22;2065;49.790;9.620;2023-02-01T13:15:24;9.70;52.90
4103;DHT22;2065;49.790;9.620;2023-02-01T13:17:55;9.60;52.40
4103;DHT22;2065;49.790;9.620;2023-02-01T13:20:29;9.60;52.60
4103;DHT22;2065;49.790;9.620;2023-02-01T13:23:00;9.70;53.00
4103;DHT22;2065;49.790;9.620;2023-02-01T13:25:33;9.80;52.70
4103;DHT22;2065;49.790;9.620;2023-02-01T13:28:05;9.80;53.20
4103;DHT22;2065;49.790;9.620;2023-02-01T13:30:45;9.80;52.50
4103;DHT22;2065;49.790;9.620;2023-02-01T13:33:33;9.90;53.50
4103;DHT22;2065;49.790;9.620;2023-02-01T13:36:36;9.80;52.50
4103;DHT22;2065;49.790;9.620;2023-02-01T13:42:19;9.60;52.80
4103;DHT22;2065;49.790;9.620;2023-02-01T13:44:50;9.70;53.70
4103;DHT22;2065;49.790;9.620;2023-02-01T13:47:26;9.80;53.30
4103;DHT22;2065;49.790;9.620;2023-02-01T13:49:55;9.80;52.80
4103;DHT22;2065;49.790;9.620;2023-02-01T13:52:27;9.90;52.60
4103;DHT22;2065;49.790;9.620;2023-02-01T13:55:02;9.90;52.50
4103;DHT22;2065;49.790;9.620;2023-02-01T13:57:37;10.10;51.40
4103;DHT22;2065;49.790;9.620;2023-02-01T14:00:20;9.80;51.90
4103;DHT22;2065;49.790;9.620;2023-02-01T14:06:02;9.50;52.70
4103;DHT22;2065;49.790;9.620;2023-02-01T14:08:42;9.60;53.40
4103;DHT22;2065;49.790;9.620;2023-02-01T14:11:37;9.60;52.90
4103;DHT22;2065;49.790;9.620;2023-02-01T14:23:29;9.80;53.00
4103;DHT22;2065;49.790;9.620;2023-02-01T14:26:18;9.90;52.80
4103;DHT22;2065;49.790;9.620;2023-02-01T14:29:01;10.10;52.10
4103;DHT22;2065;49.790;9.620;2023-02-01T14:31:37;9.80;52.60
4103;DHT22;2065;49.790;9.620;2023-02-01T14:34:15;10.10;51.20
4103;DHT22;2065;49.790;9.620;2023-02-01T14:36:46;10.10;51.40
4103;DHT22;2065;49.790;9.620;2023-02-01T14:39:35;10.10;51.70
4103;DHT22;2065;49.790;9.620;2023-02-01T14:42:13;10.10;50.70
4103;DHT22;2065;49.790;9.620;2023-02-01T14:44:41;10.20;51.30
4103;DHT22;2065;49.790;9.620;2023-02-01T14:47:30;10.30;51.30
4103;DHT22;2065;49.790;9.620;2023-02-01T14:52:47;10.00;50.60
4103;DHT22;2065;49.790;9.620;2023-02-01T14:55:20;10.00;51.50
4103;DHT22;2065;49.790;9.620;2023-02-01T14:57:53;9.90;52.30
4103;DHT22;2065;49.790;9.620;2023-02-01T15:00:25;9.70;52.50
4103;DHT22;2065;49.790;9.620;2023-02-01T15:02:54;9.60;52.60
4103;DHT22;2065;49.790;9.620;2023-02-01T15:05:28;9.70;53.00
4103;DHT22;2065;49.790;9.620;2023-02-01T15:08:03;9.70;53.00
4103;DHT22;2065;49.790;9.620;2023-02-01T15:10:41;9.70;53.40
4103;DHT22;2065;49.790;9.620;2023-02-01T15:13:18;9.60;52.90
4103;DHT22;2065;49.790;9.620;2023-02-01T15:16:03;9.40;53.50
4103;DHT22;2065;49.790;9.620;2023-02-01T15:18:31;9.50;53.20
4103;DHT22;2065;49.790;9.620;2023-02-01T15:20:59;9.60;53.10
4103;DHT22;2065;49.790;9.620;2023-02-01T15:23:27;9.50;53.00
4103;DHT22;2065;49.790;9.620;2023-02-01T15:25:55;9.50;53.00
4103;DHT22;2065;49.790;9.620;2023-02-01T15:28:24;9.70;53.10
4103;DHT22;2065;49.790;9.620;2023-02-01T15:30:53;9.80;52.90
4103;DHT22;2065;49.790;9.620;2023-02-01T15:33:20;10.00;51.40
4103;DHT22;2065;49.790;9.620;2023-02-01T15:35:49;9.70;52.10
4103;DHT22;2065;49.790;9.620;2023-02-01T15:38:33;9.90;52.20
4103;DHT22;2065;49.790;9.620;2023-02-01T15:41:08;10.00;51.10
4103;DHT22;2065;49.790;9.620;2023-02-01T15:43:39;10.00;51.60
4103;DHT22;2065;49.790;9.620;2023-02-01T15:46:10;9.80;51.90
4103;DHT22;2065;49.790;9.620;2023-02-01T15:48:43;9.50;52.40
4103;DHT22;2065;49.790;9.620;2023-02-01T15:51:17;9.40;52.80
4103;DHT22;2065;49.790;9.620;2023-02-01T15:53:46;9.40;52.90
4103;DHT22;2065;49.790;9.620;2023-02-01T15:56:16;9.60;52.50
4103;DHT22;2065;49.790;9.620;2023-02-01T15:58:51;9.80;52.50
4103;DHT22;2065;49.790;9.620;2023-02-01T16:01:19;9.60;52.20
4103;DHT22;2065;49.790;9.620;2023-02-01T16:03:46;9.80;52.70
4103;DHT22;2065;49.790;9.620;2023-02-01T16:06:28;9.90;52.30
4103;DHT22;2065;49.790;9.620;2023-02-01T16:09:01;9.70;52.10
4103;DHT22;2065;49.790;9.620;2023-02-01T16:11:32;9.60;52.50
4103;DHT22;2065;49.790;9.620;2023-02-01T16:14:00;9.60;52.50
4103;DHT22;2065;49.790;9.620;2023-02-01T16:16:28;9.70;52.80
4103;DHT22;2065;49.790;9.620;2023-02-01T16:18:55;9.50;53.10
4103;DHT22;2065;49.790;9.620;2023-02-01T16:21:22;9.60;52.70
4103;DHT22;2065;49.790;9.620;2023-02-01T16:23:51;9.80;52.60
4103;DHT22;2065;49.790;9.620;2023-02-01T16:26:18;9.70;52.40
4103;DHT22;2065;49.790;9.620;2023-02-01T16:28:47;9.70;52.40
4103;DHT22;2065;49.790;9.620;2023-02-01T16:31:16;9.60;52.20
4103;DHT22;2065;49.790;9.620;2023-02-01T16:33:49;9.60;52.80
4103;DHT22;2065;49.790;9.620;2023-02-01T16:36:17;9.80;52.90
4103;DHT22;2065;49.790;9.620;2023-02-01T16:38:45;10.00;51.40
4103;DHT22;2065;49.790;9.620;2023-02-01T16:41:13;9.70;52.10
4103;DHT22;2065;49.790;9.620;2023-02-01T16:43:40;9.70;52.90
4103;DHT22;2065;49.790;9.620;2023-02-01T16:46:13;9.70;53.10
4103;DHT22;2065;49.790;9.620;2023-02-01T16:48:46;9.70;53.60
4103;DHT22;2065;49.790;9.620;2023-02-01T16:51:16;9.70;53.80
4103;DHT22;2065;49.790;9.620;2023-02-01T16:53:44;9.50;54.90
4103;DHT22;2065;49.790;9.620;2023-02-01T16:56:14;9.80;55.00
4103;DHT22;2065;49.790;9.620;2023-02-01T16:58:42;9.90;53.80
4103;DHT22;2065;49.790;9.620;2023-02-01T17:01:13;9.60;54.40
4103;DHT22;2065;49.790;9.620;2023-02-01T17:03:41;9.40;55.10
4103;DHT22;2065;49.790;9.620;2023-02-01T17:06:10;9.30;55.30
4103;DHT22;2065;49.790;9.620;2023-02-01T17:08:41;9.40;55.70
4103;DHT22;2065;49.790;9.620;2023-02-01T17:11:10;9.40;56.40